Terminal Aerodrome Forecast
Issued by NWS Raleigh/Durham, NC

Current Version | Previous Version | Text Only | Print | Product List | Glossary On
Versions: 1 2 3 4 5 6 7 8 9 10 11 12 13 14 15 16 17 18 19 20 21 22 23 24 25 26 27 28
000
FTUS42 KRAH 200528
TAFRDU
TAF
KRDU 200528Z 2006/2106 VRB03KT P6SM BKN250
     FM201000 06006KT P6SM OVC090
     FM201500 05007KT P6SM SCT025 OVC050
      TEMPO 2018/2022 BKN018=

USA.gov is the U.S. government's official web portal to all federal, state and local government web resources and services.